EPGD

Gdańsk Lech Wałęsa Airport

Gdańsk, Poland
METAR EPGD 170900Z VRB01KT CAVOK 03/M00 Q1041
Observed Flight Rules
Nov-17 @ 09:00 UTC (15 minutes ago) Visual Flight Rules
Wind Visibility Clouds
Variable at 1 knots 10,000+ meters
  • Clear skies
Temperatures Readings
Current 3°C / 37°F
Dewpoint 0°C / 32°F
Humidity 81%
Altimeter 30.74" Hg
Pressure 1041 hPa
Elevation 138
METAR EPGD 170900Z VRB01KT CAVOK 03/M00 Q1041
Observed Flight Rules
Nov-17 @ 09:00 UTC
(15 minutes ago)
VFR
Wind Visibility
Variable at 1 knots 10,000+ meters
Clouds
  • Clear skies
Temperature Dewpoint
3°C / 37°F 0°C / 32°F
Humidity Altimeter Pressure
81% 30.74" Hg 1041 hPa